Hammond, LA

8:42 AM CDT on May 25, 2017 (GMT -0500)
Hammond Municipal | | Change Station
Active Advisory: Flood Warning

Elev 43 ft 30.52 °N, 90.41 °W | Updated 7 minutes ago

Clear
Clear
68 °F
Feels Like 68 °F
N
0
Wind Variable Wind from North

Today
High -- | Low -- °F
--% Chance of Precip.
Yesterday
High -- | Low -- °F
Precip. -- in
Pressure 29.88 in
Visibility 10.0 miles
Clouds Clear
Dew Point 52 °F
Humidity 56%
Rainfall 0.00 in
Snow Depth Not available.
6:01 AM 7:55 PM
Waning Crescent, 0% visible
METAR KHDC 251335Z AUTO 00000KT 10SM CLR 20/11 A2988 RMK AO2
Pressure 29.88 in
Visibility 10.0 miles
Clouds Clear
Dew Point 52 °F
Humidity 56%
Rainfall 0.00 in
Snow Depth Not available.
6:01 AM 7:55 PM
Waning Crescent, 0% visible
METAR KHDC 251335Z AUTO 00000KT 10SM CLR 20/11 A2988 RMK AO2

Get Your Daily Forecast Email!

Thanks for signing up!

Be on the lookout for a verification email in your inbox.

You'll start receiving severe weather alerts in your inbox..

×

10-Day Weather Forecast

Almanac

Astronomy

May. 25, 2017 Rise Set
Actual Time
Civil Twilight
Nautical Twilight
Astronomical Twilight
Moon
Length of Visible Light
Length of Day
Tomorrow will be .
, % of the Moon is Illuminated

Today's Extremes

State Highs State Lows

Community

WunderPhotos

Category 6

Welcome to Category 6. This is the collective home for Weather Underground's featured writeups by Dr. Jeff Masters (right), Bob Henson (left), Chris Burt, and other regular contributors.

Nearby

Air Quality

  Air Quality AQ Index Pollutant
Not available.

Snow Depth

Station Depth Elevation

Earthquake Activity

City Distance Mag. Time & Date
Minimum magnitude displayed is 2.5.

Coastal Water Temperatures

Place Temperature

Stations

Nearby Weather Stations

Station Location Temp. Windchill Dew Point Humidity Wind Precip. Elev Updated Type
                   

Watches & Warnings

Flood Warning
Issued: 8:25 PM CDT May. 24, 2017 – National Weather Service

The Flood Warning continues for
the Tangipahoa river near Robert.
* Until late Thursday night.
* At 7:30 PM Wednesday the stage was 15.8 feet.
* Minor flooding is occurring and minor flooding is forecast.
* Flood stage is 15.0 feet.
* Forecast... the river is expected to continue rising until cresting
at around 16.0 feet by tomorrow morning. The river is expected to
fall below flood stage tomorrow evening.
* Impact... at 16.0 feet... minor flooding near the river with beach
areas under water.
* Impact... at 15.0 feet... minor flooding near the river.


Lat... Lon 3069 9043 3069 9050 3030 9030 3036 9025